createdAt,value
2018-04-14T00:00:23.316Z,5.40
2018-04-14T00:01:23.239Z,5.60
2018-04-14T00:02:23.160Z,5.40
2018-04-14T00:03:23.084Z,5.50
2018-04-14T00:04:23.006Z,5.00
2018-04-14T00:05:22.929Z,5.50
2018-04-14T00:06:22.850Z,5.40
2018-04-14T00:07:22.774Z,5.40
2018-04-14T00:08:22.698Z,5.30
2018-04-14T00:09:22.618Z,5.20
2018-04-14T00:10:22.541Z,5.70
2018-04-14T00:11:22.463Z,5.70
2018-04-14T00:12:22.387Z,5.90
2018-04-14T00:13:22.310Z,5.90
2018-04-14T00:14:22.230Z,5.20
2018-04-14T00:15:22.154Z,6.30
2018-04-14T00:16:22.075Z,5.70
2018-04-14T00:17:21.999Z,5.80
2018-04-14T00:18:21.922Z,5.80
2018-04-14T00:19:21.843Z,5.50
2018-04-14T00:20:21.765Z,5.80
2018-04-14T00:21:21.689Z,6.50
2018-04-14T00:22:21.613Z,5.80
2018-04-14T00:23:21.533Z,5.60
2018-04-14T00:24:21.459Z,5.60
2018-04-14T00:25:21.378Z,5.80
2018-04-14T00:26:21.298Z,5.40
2018-04-14T00:27:21.222Z,5.90
2018-04-14T00:28:21.143Z,4.90
2018-04-14T00:29:21.065Z,5.80
2018-04-14T00:30:20.988Z,5.40
2018-04-14T00:31:20.910Z,6.30
2018-04-14T00:32:20.835Z,5.90
2018-04-14T00:33:20.755Z,5.10
2018-04-14T00:34:20.826Z,5.80
2018-04-14T00:35:20.598Z,5.30
2018-04-14T00:36:20.521Z,5.40
2018-04-14T00:37:20.447Z,5.70
2018-04-14T00:38:20.365Z,5.80
2018-04-14T00:39:20.287Z,6.40
2018-04-14T00:40:20.209Z,5.50
2018-04-14T00:41:20.131Z,5.30
2018-04-14T00:42:20.053Z,6.70
2018-04-14T00:43:19.978Z,5.80
2018-04-14T00:44:19.898Z,5.80
2018-04-14T00:45:19.819Z,5.60
2018-04-14T00:46:19.740Z,5.80
2018-04-14T00:47:19.663Z,6.50
2018-04-14T00:48:19.586Z,6.30
2018-04-14T00:49:19.508Z,5.00
2018-04-14T00:50:19.429Z,5.50
2018-04-14T00:51:19.349Z,5.50
2018-04-14T00:52:19.273Z,5.20
2018-04-14T00:53:19.196Z,5.30
2018-04-14T00:54:19.116Z,6.20
2018-04-14T00:55:19.038Z,5.80
2018-04-14T00:56:18.961Z,5.40
2018-04-14T00:57:18.884Z,6.20
2018-04-14T00:58:18.803Z,6.60
2018-04-14T00:59:18.725Z,6.20
2018-04-14T01:00:18.646Z,5.70
2018-04-14T01:01:18.568Z,6.20
2018-04-14T01:02:18.491Z,6.30
2018-04-14T01:03:18.412Z,5.90
2018-04-14T01:04:18.335Z,6.40
2018-04-14T01:05:18.258Z,6.10
2018-04-14T01:06:18.178Z,4.90
2018-04-14T01:07:18.100Z,5.60
2018-04-14T01:08:18.021Z,5.70
2018-04-14T01:09:17.945Z,5.00
2018-04-14T01:10:17.866Z,5.30
2018-04-14T01:11:17.787Z,4.90
2018-04-14T01:12:17.711Z,5.20
2018-04-14T01:13:17.635Z,5.00
2018-04-14T01:14:17.553Z,4.70
2018-04-14T01:15:17.475Z,4.70
2018-04-14T01:16:17.400Z,5.50
2018-04-14T01:17:17.319Z,4.10
2018-04-14T01:18:17.241Z,4.70
2018-04-14T01:19:17.163Z,3.80
2018-04-14T01:20:17.092Z,3.60
2018-04-14T01:21:17.007Z,4.30
2018-04-14T01:22:16.929Z,3.60
2018-04-14T01:23:16.851Z,4.70
2018-04-14T01:24:16.772Z,4.10
2018-04-14T01:25:16.695Z,4.70
2018-04-14T01:26:16.615Z,4.40
2018-04-14T01:27:16.539Z,3.70
2018-04-14T01:28:16.463Z,3.90
2018-04-14T01:29:16.383Z,4.10
2018-04-14T01:30:16.303Z,3.30
2018-04-14T01:31:16.225Z,3.60
2018-04-14T01:32:16.147Z,4.00
2018-04-14T01:33:16.070Z,3.70
2018-04-14T01:34:15.991Z,3.50
2018-04-14T01:35:15.914Z,3.40
2018-04-14T01:36:15.836Z,3.40
2018-04-14T01:37:15.757Z,3.40
2018-04-14T01:38:15.677Z,3.60
2018-04-14T01:39:15.642Z,3.90
2018-04-14T01:40:15.521Z,3.70
2018-04-14T01:41:15.443Z,3.10
2018-04-14T01:42:15.365Z,3.30
2018-04-14T01:43:15.301Z,3.20
2018-04-14T01:44:15.209Z,3.40
2018-04-14T01:45:15.131Z,3.70
2018-04-14T01:46:15.053Z,3.40
2018-04-14T01:47:14.974Z,4.00
2018-04-14T01:48:14.896Z,3.60
2018-04-14T01:49:14.817Z,3.80
2018-04-14T01:50:14.739Z,3.70
2018-04-14T01:51:14.660Z,3.90
2018-04-14T01:52:14.585Z,3.30
2018-04-14T01:53:14.504Z,3.30
2018-04-14T01:54:14.425Z,3.20
2018-04-14T01:55:14.346Z,3.90
2018-04-14T01:56:14.267Z,3.90
2018-04-14T01:57:14.191Z,3.30
2018-04-14T01:58:14.112Z,3.80
2018-04-14T01:59:14.033Z,3.70
2018-04-14T02:00:13.956Z,3.90
2018-04-14T02:01:13.877Z,3.80
2018-04-14T02:02:13.798Z,3.80
2018-04-14T02:03:13.720Z,4.30
2018-04-14T02:04:13.641Z,4.00
2018-04-14T02:05:13.564Z,3.80
2018-04-14T02:06:13.532Z,4.20
2018-04-14T02:07:13.408Z,4.90
2018-04-14T02:08:13.328Z,4.20
2018-04-14T02:09:13.250Z,4.60
2018-04-14T02:10:13.171Z,4.60
2018-04-14T02:11:13.093Z,5.30
2018-04-14T02:12:13.015Z,4.70
2018-04-14T02:13:12.937Z,5.20
2018-04-14T02:14:12.857Z,5.20
2018-04-14T02:15:12.779Z,5.60
2018-04-14T02:16:12.700Z,5.30
2018-04-14T02:17:12.623Z,5.10
2018-04-14T02:18:12.544Z,4.70
2018-04-14T02:19:12.466Z,5.50
2018-04-14T02:20:12.388Z,4.90
2018-04-14T02:21:12.309Z,4.40
2018-04-14T02:22:12.231Z,4.70
2018-04-14T02:23:12.154Z,4.50
2018-04-14T02:24:12.074Z,4.80
2018-04-14T02:25:11.998Z,4.40
2018-04-14T02:26:11.916Z,4.40
2018-04-14T02:27:11.838Z,4.80
2018-04-14T02:28:11.761Z,4.70
2018-04-14T02:29:11.683Z,4.00
2018-04-14T02:30:11.604Z,4.60
2018-04-14T02:31:11.524Z,4.60
2018-04-14T02:32:11.447Z,4.70
2018-04-14T02:33:11.370Z,4.50
2018-04-14T02:34:11.289Z,4.20
2018-04-14T02:35:11.212Z,4.30
2018-04-14T02:36:11.135Z,4.60
2018-04-14T02:37:11.056Z,4.90
2018-04-14T02:38:10.976Z,4.80
2018-04-14T02:39:10.899Z,4.50
2018-04-14T02:40:10.828Z,4.30
2018-04-14T02:41:10.744Z,4.80
2018-04-14T02:42:10.962Z,4.50
2018-04-14T02:43:10.585Z,4.00
2018-04-14T02:44:10.507Z,4.60
2018-04-14T02:45:10.429Z,4.60
2018-04-14T02:46:10.362Z,4.50
2018-04-14T02:47:10.271Z,4.30
2018-04-14T02:48:10.194Z,4.20
2018-04-14T02:49:10.115Z,4.10
2018-04-14T02:50:10.036Z,4.50
2018-04-14T02:51:09.958Z,3.90
2018-04-14T02:52:09.884Z,3.70
2018-04-14T02:53:09.801Z,3.80
2018-04-14T02:54:09.721Z,3.60
2018-04-14T02:55:09.644Z,4.00
2018-04-14T02:56:09.565Z,3.80
2018-04-14T02:57:09.490Z,3.80
2018-04-14T02:58:09.408Z,4.00
2018-04-14T02:59:09.331Z,3.70
2018-04-14T03:00:09.257Z,3.60
2018-04-14T03:01:09.174Z,3.80
2018-04-14T03:02:09.096Z,3.70
2018-04-14T03:03:09.017Z,3.10
2018-04-14T03:04:08.939Z,3.20
2018-04-14T03:05:08.860Z,2.90
2018-04-14T03:06:08.781Z,3.40
2018-04-14T03:07:08.703Z,3.30
2018-04-14T03:08:08.625Z,3.20
2018-04-14T03:09:08.562Z,3.30
2018-04-14T03:10:08.468Z,3.00
2018-04-14T03:11:08.391Z,3.10
2018-04-14T03:12:08.313Z,3.20
2018-04-14T03:13:08.234Z,2.90
2018-04-14T03:14:08.155Z,3.50
2018-04-14T03:15:08.075Z,3.20
2018-04-14T03:16:07.998Z,3.60
2018-04-14T03:17:07.920Z,3.30
2018-04-14T03:18:07.841Z,3.50
2018-04-14T03:19:07.763Z,2.70
2018-04-14T03:20:07.683Z,3.20
2018-04-14T03:21:07.606Z,3.00
2018-04-14T03:22:07.526Z,2.90
2018-04-14T03:23:07.449Z,3.20
2018-04-14T03:24:07.371Z,2.80
2018-04-14T03:25:07.292Z,3.00
2018-04-14T03:26:07.215Z,3.10
2018-04-14T03:27:07.135Z,3.40
2018-04-14T03:28:07.056Z,3.20
2018-04-14T03:29:06.978Z,2.70
2018-04-14T03:30:06.899Z,2.90
2018-04-14T03:31:06.822Z,3.50
2018-04-14T03:32:06.742Z,3.00
2018-04-14T03:33:06.664Z,2.80
2018-04-14T03:34:06.584Z,3.70
2018-04-14T03:35:06.507Z,2.70
2018-04-14T03:36:06.428Z,2.80
2018-04-14T03:37:06.350Z,3.10
2018-04-14T03:38:06.270Z,2.80
2018-04-14T03:39:06.193Z,3.10
2018-04-14T03:40:06.114Z,3.10
2018-04-14T03:41:06.036Z,3.00
2018-04-14T03:42:05.957Z,3.20
2018-04-14T03:43:05.878Z,2.90
2018-04-14T03:44:05.798Z,2.80
2018-04-14T03:45:05.721Z,2.80
2018-04-14T03:46:05.640Z,2.60
2018-04-14T03:47:05.563Z,2.80
2018-04-14T03:48:05.485Z,2.60
2018-04-14T03:49:05.408Z,2.70
2018-04-14T03:50:05.327Z,3.10
2018-04-14T03:51:05.250Z,2.70
2018-04-14T03:52:05.173Z,3.00
2018-04-14T03:53:05.092Z,2.80
2018-04-14T03:54:05.014Z,2.90
2018-04-14T03:55:04.937Z,2.70
2018-04-14T03:56:04.858Z,3.00
2018-04-14T03:57:04.778Z,2.50
2018-04-14T03:58:04.698Z,2.60
2018-04-14T03:59:04.620Z,2.80
2018-04-14T04:00:04.541Z,2.80
2018-04-14T04:01:04.464Z,3.40
2018-04-14T04:02:04.386Z,2.50
2018-04-14T04:03:04.305Z,2.70
2018-04-14T04:04:04.227Z,2.90
2018-04-14T04:05:04.149Z,3.00
2018-04-14T04:06:04.072Z,2.70
2018-04-14T04:07:03.991Z,3.00
2018-04-14T04:08:03.912Z,2.70
2018-04-14T04:09:03.834Z,2.70
2018-04-14T04:10:03.755Z,2.60
2018-04-14T04:11:03.677Z,2.80
2018-04-14T04:12:03.606Z,2.70
2018-04-14T04:13:03.519Z,2.50
2018-04-14T04:14:03.441Z,2.80
2018-04-14T04:15:03.362Z,2.50
2018-04-14T04:16:03.285Z,2.80
2018-04-14T04:17:03.209Z,2.60
2018-04-14T04:18:03.127Z,2.60
2018-04-14T04:19:03.047Z,2.50
2018-04-14T04:20:02.969Z,2.60
2018-04-14T04:21:02.892Z,2.80
2018-04-14T04:22:02.812Z,3.20
2018-04-14T04:23:02.735Z,3.00
2018-04-14T04:24:02.954Z,2.80
2018-04-14T04:25:02.576Z,2.70
2018-04-14T04:26:02.497Z,2.90
2018-04-14T04:27:02.418Z,2.80
2018-04-14T04:28:02.340Z,2.70
2018-04-14T04:29:02.261Z,2.90
2018-04-14T04:30:02.185Z,2.80
2018-04-14T04:31:02.105Z,3.00
2018-04-14T04:32:02.027Z,3.00
2018-04-14T04:33:01.949Z,2.70
2018-04-14T04:34:01.868Z,3.50
2018-04-14T04:35:01.790Z,2.90
2018-04-14T04:36:01.714Z,3.10
2018-04-14T04:37:01.634Z,2.90
2018-04-14T04:38:01.554Z,3.60
2018-04-14T04:39:01.483Z,3.10
2018-04-14T04:40:01.399Z,2.60
2018-04-14T04:41:01.324Z,3.10
2018-04-14T04:42:01.240Z,2.40
2018-04-14T04:43:01.162Z,2.90
2018-04-14T04:44:01.084Z,2.60
2018-04-14T04:45:01.006Z,3.40
2018-04-14T04:46:00.927Z,2.70
2018-04-14T04:47:00.850Z,2.70
2018-04-14T04:48:00.770Z,2.60
2018-04-14T04:49:00.696Z,2.80
2018-04-14T04:50:00.615Z,2.90
2018-04-14T04:51:00.536Z,2.70
2018-04-14T04:52:00.456Z,2.80
2018-04-14T04:53:00.378Z,3.00
2018-04-14T04:54:00.299Z,2.90
2018-04-14T04:55:00.221Z,2.80
2018-04-14T04:56:00.144Z,3.00
2018-04-14T04:57:00.066Z,3.10
2018-04-14T04:57:59.985Z,3.00
2018-04-14T04:58:59.907Z,2.80
2018-04-14T04:59:59.828Z,2.70
2018-04-14T05:00:59.751Z,2.80
2018-04-14T05:01:59.670Z,3.00
2018-04-14T05:02:59.592Z,3.40
2018-04-14T05:03:59.514Z,3.00
2018-04-14T05:04:59.440Z,3.20
2018-04-14T05:05:59.358Z,3.10
2018-04-14T05:06:59.284Z,2.80
2018-04-14T05:07:59.202Z,2.90
2018-04-14T05:08:59.122Z,2.80
2018-04-14T05:09:59.044Z,2.70
2018-04-14T05:10:58.965Z,2.70
2018-04-14T05:11:58.888Z,2.80
2018-04-14T05:12:58.809Z,2.70
2018-04-14T05:13:58.731Z,2.80
2018-04-14T05:14:58.652Z,2.90
2018-04-14T05:15:58.575Z,3.00
2018-04-14T05:16:58.496Z,2.90
2018-04-14T05:17:58.417Z,2.90
2018-04-14T05:18:58.342Z,2.60
2018-04-14T05:19:58.264Z,2.80
2018-04-14T05:20:58.188Z,2.90
2018-04-14T05:21:58.106Z,2.80
2018-04-14T05:22:58.027Z,2.90
2018-04-14T05:23:57.949Z,3.00
2018-04-14T05:24:57.878Z,2.60
2018-04-14T05:25:57.792Z,2.70
2018-04-14T05:26:57.715Z,2.90
2018-04-14T05:27:57.637Z,2.90
2018-04-14T05:28:57.559Z,2.40
2018-04-14T05:29:57.480Z,2.80
2018-04-14T05:30:57.403Z,3.10
2018-04-14T05:31:57.324Z,2.60
2018-04-14T05:32:57.246Z,2.50
2018-04-14T05:33:57.167Z,3.00
2018-04-14T05:34:57.090Z,3.00
2018-04-14T05:35:57.013Z,3.10
2018-04-14T05:36:56.939Z,2.50
2018-04-14T05:37:56.855Z,2.30
2018-04-14T05:38:56.777Z,2.70
2018-04-14T05:39:56.700Z,2.60
2018-04-14T05:40:56.622Z,2.70
2018-04-14T05:41:56.543Z,2.70
2018-04-14T05:42:56.465Z,2.50
2018-04-14T05:43:56.388Z,2.50
2018-04-14T05:44:56.313Z,2.60
2018-04-14T05:45:56.231Z,2.60
2018-04-14T05:46:56.154Z,2.80
2018-04-14T05:47:56.076Z,2.50
2018-04-14T05:48:55.999Z,2.40
2018-04-14T05:49:55.920Z,2.70
2018-04-14T05:50:55.889Z,3.00
2018-04-14T05:51:55.765Z,2.70
2018-04-14T05:52:55.687Z,2.50
2018-04-14T05:53:55.609Z,2.70
2018-04-14T05:54:55.531Z,2.40
2018-04-14T05:55:55.456Z,2.50
2018-04-14T05:56:55.377Z,2.70
2018-04-14T05:57:55.299Z,2.50
2018-04-14T05:58:55.222Z,2.30
2018-04-14T05:59:55.144Z,2.20
2018-04-14T06:00:55.067Z,2.50
2018-04-14T06:01:54.992Z,2.50
2018-04-14T06:02:54.912Z,2.40
2018-04-14T06:03:54.835Z,2.70
2018-04-14T06:04:54.758Z,2.60
2018-04-14T06:05:54.679Z,2.40
2018-04-14T06:06:54.607Z,2.70
2018-04-14T06:07:54.531Z,2.60
2018-04-14T06:08:54.450Z,2.50
2018-04-14T06:09:54.376Z,2.30
2018-04-14T06:10:54.297Z,2.30
2018-04-14T06:11:54.219Z,2.40
2018-04-14T06:12:54.144Z,2.60
2018-04-14T06:13:54.066Z,3.10
2018-04-14T06:14:53.993Z,2.70
2018-04-14T06:15:53.915Z,3.00
2018-04-14T06:16:53.837Z,2.80
2018-04-14T06:17:53.761Z,2.90
2018-04-14T06:18:53.686Z,2.50
2018-04-14T06:19:53.610Z,3.00
2018-04-14T06:20:53.532Z,3.40
2018-04-14T06:21:53.455Z,2.80
2018-04-14T06:22:53.380Z,2.70
2018-04-14T06:23:53.304Z,2.70
2018-04-14T06:24:53.227Z,3.60
2018-04-14T06:25:53.154Z,5.30
2018-04-14T06:26:53.082Z,4.20
2018-04-14T06:27:52.999Z,3.10
2018-04-14T06:28:52.924Z,3.70
2018-04-14T06:29:52.846Z,3.00
2018-04-14T06:30:52.772Z,2.30
2018-04-14T06:31:52.696Z,2.60
2018-04-14T06:32:52.621Z,2.40
2018-04-14T06:33:52.590Z,2.50
2018-04-14T06:34:52.470Z,2.30
2018-04-14T06:35:52.394Z,2.30
2018-04-14T06:36:52.319Z,2.40
2018-04-14T06:37:52.292Z,2.10
2018-04-14T06:38:52.171Z,2.40
2018-04-14T06:39:52.093Z,2.20
2018-04-14T06:40:52.017Z,2.20
2018-04-14T06:41:51.941Z,2.60
2018-04-14T06:42:51.867Z,2.80
2018-04-14T06:43:51.790Z,2.20
2018-04-14T06:44:51.717Z,2.30
2018-04-14T06:45:51.641Z,2.30
2018-04-14T06:46:51.570Z,2.40
2018-04-14T06:47:51.492Z,2.50
2018-04-14T06:48:51.417Z,2.40
2018-04-14T06:49:51.341Z,2.50
2018-04-14T06:50:51.266Z,2.50
2018-04-14T06:51:51.191Z,2.60
2018-04-14T06:52:51.120Z,2.80
2018-04-14T06:53:51.043Z,2.50
2018-04-14T06:54:50.968Z,2.60
2018-04-14T06:55:50.900Z,2.40
2018-04-14T06:56:50.819Z,2.20
2018-04-14T06:57:50.743Z,2.20
2018-04-14T06:58:50.669Z,2.40
2018-04-14T06:59:50.601Z,2.30
2018-04-14T07:00:50.520Z,2.40
2018-04-14T07:01:50.446Z,2.20
2018-04-14T07:02:50.371Z,2.20
2018-04-14T07:03:50.296Z,2.30
2018-04-14T07:04:50.262Z,2.30
2018-04-14T07:05:50.148Z,2.20
2018-04-14T07:06:50.073Z,2.10
2018-04-14T07:07:49.998Z,2.40
2018-04-14T07:08:49.925Z,2.30
2018-04-14T07:09:49.850Z,2.60
2018-04-14T07:10:49.775Z,2.10
2018-04-14T07:11:49.711Z,2.50
2018-04-14T07:12:49.627Z,2.20
2018-04-14T07:13:49.553Z,2.20
2018-04-14T07:14:49.479Z,2.20
2018-04-14T07:15:49.404Z,2.20
2018-04-14T07:16:49.331Z,2.00
2018-04-14T07:17:49.256Z,2.00
2018-04-14T07:18:49.183Z,2.00
2018-04-14T07:19:49.108Z,2.30
2018-04-14T07:20:49.046Z,2.20
2018-04-14T07:21:48.960Z,2.40
2018-04-14T07:22:48.888Z,2.20
2018-04-14T07:23:48.813Z,2.50
2018-04-14T07:24:48.739Z,2.20
2018-04-14T07:25:48.666Z,2.30
2018-04-14T07:26:48.629Z,2.50
2018-04-14T07:27:48.518Z,2.60
2018-04-14T07:28:48.443Z,2.20
2018-04-14T07:29:48.368Z,2.40
2018-04-14T07:30:48.294Z,2.20
2018-04-14T07:31:48.220Z,2.30
2018-04-14T07:32:48.147Z,2.50
2018-04-14T07:33:48.071Z,2.00
2018-04-14T07:34:48.000Z,2.00
2018-04-14T07:35:47.924Z,1.90
2018-04-14T07:36:47.856Z,2.10
2018-04-14T07:37:47.777Z,2.30
2018-04-14T07:38:47.707Z,2.20
2018-04-14T07:39:47.629Z,1.90
2018-04-14T07:40:47.556Z,2.30
2018-04-14T07:41:47.481Z,2.20
2018-04-14T07:42:47.408Z,2.10
2018-04-14T07:43:47.335Z,2.00
2018-04-14T07:44:47.261Z,2.10
2018-04-14T07:45:47.186Z,2.00
2018-04-14T07:46:47.113Z,2.00
2018-04-14T07:47:47.040Z,2.00
2018-04-14T07:48:46.966Z,2.00
2018-04-14T07:49:46.891Z,1.70
2018-04-14T07:50:46.818Z,2.10
2018-04-14T07:51:46.745Z,1.90
2018-04-14T07:52:46.672Z,1.80
2018-04-14T07:53:46.597Z,1.70
2018-04-14T07:54:46.524Z,1.70
2018-04-14T07:55:46.452Z,2.10
2018-04-14T07:56:46.381Z,2.10
2018-04-14T07:57:46.317Z,1.80
2018-04-14T07:58:46.231Z,1.60
2018-04-14T07:59:46.158Z,1.70
2018-04-14T08:00:46.084Z,1.80
2018-04-14T08:01:46.010Z,2.10
2018-04-14T08:02:45.936Z,2.00
2018-04-14T08:03:45.863Z,1.80
2018-04-14T08:04:45.791Z,2.00
2018-04-14T08:05:45.716Z,1.80
2018-04-14T08:06:45.643Z,1.80
2018-04-14T08:07:45.569Z,1.70
2018-04-14T08:08:45.497Z,1.70
2018-04-14T08:09:45.421Z,1.90
2018-04-14T08:10:45.348Z,1.70
2018-04-14T08:11:45.278Z,1.80
2018-04-14T08:12:45.203Z,2.40
2018-04-14T08:13:45.129Z,1.80
2018-04-14T08:14:45.057Z,1.70
2018-04-14T08:15:44.983Z,1.50
2018-04-14T08:16:44.911Z,1.60
2018-04-14T08:17:44.837Z,1.60
2018-04-14T08:18:44.764Z,1.80
2018-04-14T08:19:44.691Z,1.80
2018-04-14T08:20:44.618Z,1.90
2018-04-14T08:21:44.545Z,1.50
2018-04-14T08:22:44.473Z,1.70
2018-04-14T08:23:44.400Z,1.60
2018-04-14T08:24:44.329Z,1.60
2018-04-14T08:25:44.253Z,1.90
2018-04-14T08:26:44.180Z,1.80
2018-04-14T08:27:44.108Z,1.50
2018-04-14T08:28:44.034Z,1.80
2018-04-14T08:29:43.960Z,1.80
2018-04-14T08:30:43.887Z,1.70
2018-04-14T08:31:43.815Z,1.70
2018-04-14T08:32:43.742Z,1.90
2018-04-14T08:33:43.668Z,1.90
2018-04-14T08:34:43.595Z,1.70
2018-04-14T08:35:43.523Z,1.50
2018-04-14T08:36:43.450Z,1.70
2018-04-14T08:37:43.376Z,1.70
2018-04-14T08:38:43.305Z,1.60
2018-04-14T08:39:43.230Z,1.50
2018-04-14T08:40:43.158Z,1.50
2018-04-14T08:41:43.090Z,1.70
2018-04-14T08:42:43.016Z,1.50
2018-04-14T08:43:42.939Z,1.70
2018-04-14T08:44:42.866Z,1.60
2018-04-14T08:45:42.792Z,1.70
2018-04-14T08:46:42.721Z,1.50
2018-04-14T08:47:42.647Z,1.60
2018-04-14T08:48:42.575Z,1.60
2018-04-14T08:49:42.502Z,1.60
2018-04-14T08:50:42.429Z,1.80
2018-04-14T08:51:42.357Z,1.60
2018-04-14T08:52:42.284Z,1.80
2018-04-14T08:53:42.210Z,1.60
2018-04-14T08:54:42.137Z,1.50
2018-04-14T08:55:42.066Z,1.50
2018-04-14T08:56:41.995Z,1.70
2018-04-14T08:57:41.920Z,1.90
2018-04-14T08:58:41.847Z,1.60
2018-04-14T08:59:41.776Z,1.60
2018-04-14T09:00:41.705Z,1.40
2018-04-14T09:01:41.631Z,1.80
2018-04-14T09:02:41.558Z,1.70
2018-04-14T09:03:41.488Z,1.60
2018-04-14T09:04:41.416Z,1.60
2018-04-14T09:05:41.341Z,1.40
2018-04-14T09:06:41.267Z,1.50
2018-04-14T09:07:41.194Z,1.40
2018-04-14T09:08:41.124Z,1.60
2018-04-14T09:09:41.051Z,1.40
2018-04-14T09:10:40.977Z,1.60
2018-04-14T09:11:40.905Z,1.50
2018-04-14T09:12:40.833Z,1.70
2018-04-14T09:13:40.760Z,1.50
2018-04-14T09:14:40.689Z,1.60
2018-04-14T09:15:40.616Z,1.60
2018-04-14T09:16:40.544Z,1.50
2018-04-14T09:17:40.472Z,1.60
2018-04-14T09:18:40.398Z,1.80
2018-04-14T09:19:40.329Z,1.60
2018-04-14T09:20:40.255Z,1.60
2018-04-14T09:21:40.182Z,1.50
2018-04-14T09:22:40.110Z,2.40
2018-04-14T09:23:40.037Z,1.60
2018-04-14T09:24:39.966Z,1.50
2018-04-14T09:25:39.897Z,1.70
2018-04-14T09:26:39.820Z,1.60
2018-04-14T09:27:39.751Z,1.80
2018-04-14T09:28:39.676Z,1.60
2018-04-14T09:29:39.603Z,1.50
2018-04-14T09:30:39.530Z,1.90
2018-04-14T09:31:39.459Z,2.10
2018-04-14T09:32:39.388Z,1.80
2018-04-14T09:33:39.314Z,1.80
2018-04-14T09:34:39.243Z,1.60
2018-04-14T09:35:39.170Z,1.60
2018-04-14T09:36:39.100Z,1.60
2018-04-14T09:37:39.026Z,2.00
2018-04-14T09:38:38.960Z,1.90
2018-04-14T09:39:38.883Z,2.00
2018-04-14T09:40:38.811Z,1.80
2018-04-14T09:41:38.738Z,1.70
2018-04-14T09:42:38.667Z,1.80
2018-04-14T09:43:38.597Z,2.60
2018-04-14T09:44:38.525Z,1.80
2018-04-14T09:45:38.451Z,1.80
2018-04-14T09:46:38.379Z,1.60
2018-04-14T09:47:38.307Z,2.10
2018-04-14T09:48:38.236Z,2.00
2018-04-14T09:49:38.165Z,1.70
2018-04-14T09:50:38.093Z,1.90
2018-04-14T09:51:38.021Z,1.80
2018-04-14T09:52:37.949Z,2.10
2018-04-14T09:53:37.876Z,2.00
2018-04-14T09:54:37.805Z,1.60
2018-04-14T09:55:37.734Z,1.40
2018-04-14T09:56:37.662Z,1.60
2018-04-14T09:57:37.589Z,1.50
2018-04-14T09:58:37.522Z,1.30
2018-04-14T09:59:37.447Z,1.50
2018-04-14T10:00:37.374Z,1.60
2018-04-14T10:01:37.303Z,1.80
2018-04-14T10:02:37.230Z,1.60
2018-04-14T10:03:37.163Z,1.60
2018-04-14T10:04:37.088Z,1.30
2018-04-14T10:05:37.015Z,1.40
2018-04-14T10:06:36.944Z,1.70
2018-04-14T10:07:36.873Z,1.40
2018-04-14T10:08:36.801Z,1.40
2018-04-14T10:09:36.727Z,1.60
2018-04-14T10:10:36.702Z,1.60
2018-04-14T10:11:36.587Z,1.50
2018-04-14T10:12:36.515Z,1.30
2018-04-14T10:13:36.446Z,1.30
2018-04-14T10:14:36.373Z,1.20
2018-04-14T10:15:36.301Z,1.20
2018-04-14T10:16:36.228Z,1.40
2018-04-14T10:17:36.159Z,1.20
2018-04-14T10:18:36.085Z,1.40
2018-04-14T10:19:36.017Z,1.40
2018-04-14T10:20:35.944Z,1.30
2018-04-14T10:21:35.876Z,1.30
2018-04-14T10:22:35.805Z,1.40
2018-04-14T10:23:35.729Z,1.20
2018-04-14T10:24:35.658Z,1.20
2018-04-14T10:25:35.587Z,1.20
2018-04-14T10:26:35.515Z,1.10
2018-04-14T10:27:35.449Z,1.20
2018-04-14T10:28:35.374Z,1.30
2018-04-14T10:29:35.302Z,1.50
2018-04-14T10:30:35.232Z,1.20
2018-04-14T10:31:35.161Z,1.30
2018-04-14T10:32:35.090Z,1.10
2018-04-14T10:33:35.018Z,1.30
2018-04-14T10:34:34.947Z,1.20
2018-04-14T10:35:34.876Z,1.30
2018-04-14T10:36:34.806Z,1.50
2018-04-14T10:37:34.735Z,1.20
2018-04-14T10:38:34.663Z,1.20
2018-04-14T10:39:34.599Z,1.70
2018-04-14T10:40:34.524Z,1.30
2018-04-14T10:41:34.453Z,1.20
2018-04-14T10:42:34.382Z,1.20
2018-04-14T10:43:34.312Z,1.40
2018-04-14T10:44:34.241Z,1.30
2018-04-14T10:45:34.169Z,1.50
2018-04-14T10:46:34.100Z,1.30
2018-04-14T10:47:34.035Z,1.10
2018-04-14T10:48:33.960Z,1.20
2018-04-14T10:49:33.897Z,1.30
2018-04-14T10:50:33.819Z,1.40
2018-04-14T10:51:33.748Z,1.30
2018-04-14T10:52:33.679Z,1.20
2018-04-14T10:53:33.609Z,1.10
2018-04-14T10:54:33.539Z,1.10
2018-04-14T10:55:33.470Z,1.40
2018-04-14T10:56:33.402Z,1.20
2018-04-14T10:57:33.333Z,1.40
2018-04-14T10:58:33.263Z,1.10
2018-04-14T10:59:33.195Z,1.10
2018-04-14T11:00:33.126Z,1.20
2018-04-14T11:01:33.057Z,1.00
2018-04-14T11:02:32.991Z,1.10
2018-04-14T11:03:32.920Z,1.30
2018-04-14T11:04:32.850Z,1.20
2018-04-14T11:05:32.782Z,1.30
2018-04-14T11:06:32.718Z,1.20
2018-04-14T11:07:32.650Z,1.20
2018-04-14T11:08:32.583Z,1.10
2018-04-14T11:09:32.512Z,1.30
2018-04-14T11:10:32.441Z,1.50
2018-04-14T11:11:32.374Z,1.60
2018-04-14T11:12:32.305Z,1.20
2018-04-14T11:13:32.235Z,1.20
2018-04-14T11:14:32.169Z,1.10
2018-04-14T11:15:32.099Z,1.20
2018-04-14T11:16:32.031Z,1.10
2018-04-14T11:17:31.967Z,1.20
2018-04-14T11:18:31.895Z,1.20
2018-04-14T11:19:31.827Z,1.40
2018-04-14T11:20:31.780Z,1.20
2018-04-14T11:21:31.690Z,1.60
2018-04-14T11:22:31.623Z,1.20
2018-04-14T11:23:31.554Z,1.80
2018-04-14T11:24:31.486Z,1.30
2018-04-14T11:25:31.418Z,1.20
2018-04-14T11:26:31.351Z,1.10
2018-04-14T11:27:31.284Z,1.20
2018-04-14T11:28:31.216Z,1.30
2018-04-14T11:29:31.147Z,1.10
2018-04-14T11:30:31.080Z,1.90
2018-04-14T11:31:31.014Z,1.20
2018-04-14T11:32:30.946Z,1.70
2018-04-14T11:33:30.878Z,1.10
2018-04-14T11:34:30.812Z,1.10
2018-04-14T11:35:30.746Z,1.30
2018-04-14T11:36:30.681Z,1.10
2018-04-14T11:37:30.616Z,1.00
2018-04-14T11:38:30.549Z,1.20
2018-04-14T11:39:30.488Z,1.20
2018-04-14T11:40:30.424Z,1.10
2018-04-14T11:41:30.354Z,0.90
2018-04-14T11:42:30.291Z,1.00
2018-04-14T11:43:30.281Z,1.00
2018-04-14T11:44:30.164Z,1.10
2018-04-14T11:45:30.101Z,1.60
2018-04-14T11:46:30.038Z,1.20
2018-04-14T11:47:29.976Z,0.90
2018-04-14T11:48:29.916Z,0.90
2018-04-14T11:49:29.853Z,0.80
2018-04-14T11:50:29.793Z,0.90
2018-04-14T11:51:29.731Z,1.00
2018-04-14T11:52:29.671Z,0.90
2018-04-14T11:53:29.609Z,1.20
2018-04-14T11:54:29.550Z,0.80
2018-04-14T11:55:29.489Z,0.90
2018-04-14T11:56:29.428Z,1.00
2018-04-14T11:57:29.371Z,0.80
2018-04-14T11:58:29.308Z,0.80
2018-04-14T11:59:29.248Z,0.90
2018-04-14T12:00:29.189Z,0.90
2018-04-14T12:01:29.131Z,1.00
2018-04-14T12:02:29.070Z,0.90
2018-04-14T12:03:29.010Z,1.00
2018-04-14T12:04:28.953Z,1.10
2018-04-14T12:05:28.890Z,1.00
2018-04-14T12:06:28.832Z,1.00
2018-04-14T12:07:28.772Z,1.00
2018-04-14T12:08:28.714Z,0.90
2018-04-14T12:09:28.655Z,1.10
2018-04-14T12:10:28.596Z,1.10
2018-04-14T12:11:28.538Z,0.90
2018-04-14T12:12:28.481Z,1.00
2018-04-14T12:13:28.422Z,1.10
2018-04-14T12:14:28.361Z,1.00
2018-04-14T12:15:28.304Z,0.90
2018-04-14T12:16:28.244Z,1.00
2018-04-14T12:17:28.188Z,1.00
2018-04-14T12:18:28.130Z,1.10
2018-04-14T12:19:28.068Z,1.00
2018-04-14T12:20:28.010Z,1.80
2018-04-14T12:21:27.950Z,1.70
2018-04-14T12:22:27.892Z,1.50
2018-04-14T12:23:27.834Z,1.60
2018-04-14T12:24:27.780Z,1.10
2018-04-14T12:25:27.719Z,1.00
2018-04-14T12:26:27.660Z,0.90
2018-04-14T12:27:27.603Z,1.10
2018-04-14T12:28:27.545Z,1.10
2018-04-14T12:29:27.486Z,1.00
2018-04-14T12:30:27.431Z,0.90
2018-04-14T12:31:27.370Z,0.90
2018-04-14T12:32:27.312Z,1.00
2018-04-14T12:33:27.252Z,0.90
2018-04-14T12:34:27.196Z,0.90
2018-04-14T12:35:27.137Z,0.90
2018-04-14T12:36:27.081Z,0.90
2018-04-14T12:37:27.020Z,0.80
2018-04-14T12:38:26.969Z,0.90
2018-04-14T12:39:26.906Z,0.90
2018-04-14T12:40:26.849Z,1.10
2018-04-14T12:41:26.791Z,1.10
2018-04-14T12:42:26.735Z,1.00
2018-04-14T12:43:26.676Z,1.00
2018-04-14T12:44:26.619Z,1.00
2018-04-14T12:45:26.560Z,1.00
2018-04-14T12:46:26.508Z,1.00
2018-04-14T12:47:26.447Z,1.00
2018-04-14T12:48:26.390Z,0.90
2018-04-14T12:49:26.333Z,1.10
2018-04-14T12:50:26.275Z,1.00
2018-04-14T12:51:26.224Z,1.10
2018-04-14T12:52:26.162Z,1.10
2018-04-14T12:53:26.105Z,1.20
2018-04-14T12:54:26.050Z,1.00
2018-04-14T12:55:25.994Z,1.10
2018-04-14T12:56:25.938Z,1.10
2018-04-14T12:57:25.881Z,1.20
2018-04-14T12:58:25.826Z,1.20
2018-04-14T12:59:25.772Z,1.10
2018-04-14T13:00:25.718Z,1.30
2018-04-14T13:01:25.658Z,1.20
2018-04-14T13:02:25.604Z,1.10
2018-04-14T13:03:25.547Z,1.20
2018-04-14T13:04:25.492Z,1.10
2018-04-14T13:05:25.439Z,1.30
2018-04-14T13:06:25.380Z,1.30
2018-04-14T13:07:25.326Z,1.20
2018-04-14T13:08:25.270Z,1.30
2018-04-14T13:09:25.215Z,1.20
2018-04-14T13:10:25.158Z,1.20
2018-04-14T13:11:25.103Z,1.10
2018-04-14T13:12:25.047Z,1.10
2018-04-14T13:13:24.992Z,1.10
2018-04-14T13:14:24.947Z,1.20
2018-04-14T13:15:24.881Z,1.40
2018-04-14T13:16:24.823Z,1.00
2018-04-14T13:17:24.768Z,1.20